Belgrade, Nebraska
Current Conditions -  °F | °C
As of 6:55 AM on Wednesday 22 Oct 2014 (Local Time) from KBVN Reporting Station
Clear Clear  
Wind Chill: 53°   Ceiling: Unl
Heat Index: 53°   Visibility: 10mi
Dew Point: 47°   Wind: 10mph
Humidity: 81%   Direction: 140°SE
Pressure: 30"   Gusts: NA
Location:  41.47°N, 98.07°W
Report Text: KBVN 221155Z AUTO 14009KT 10SM CLR 12/08 A3000 RMK AO2 T01150084 10133 20115
Loading
Personal Weather Stations






























Interactive Weather Map
Tropical Storm Tracking
New forecast layout! Learn more

10-Day Weather Forecast

Advertisements
Track Severe Weather on mobile